createdAt,value
2023-03-05T00:00:21.316Z,987.3
2023-03-05T00:02:23.339Z,987.3
2023-03-05T00:04:24.612Z,987.3
2023-03-05T00:08:27.578Z,987.2
2023-03-05T00:10:29.496Z,987.3
2023-03-05T00:12:31.392Z,987.3
2023-03-05T00:14:32.517Z,987.3
2023-03-05T00:16:34.463Z,987.3
2023-03-05T00:18:36.000Z,987.2
2023-03-05T00:20:37.565Z,987.3
2023-03-05T00:22:39.137Z,987.3
2023-03-05T00:24:40.298Z,987.3
2023-03-05T00:26:41.442Z,987.3
2023-03-05T00:28:43.222Z,987.3
2023-03-05T00:30:44.722Z,987.2
2023-03-05T00:32:46.631Z,987.3
2023-03-05T00:34:48.269Z,987.2
2023-03-05T00:36:49.703Z,987.2
2023-03-05T00:38:51.166Z,987.2
2023-03-05T00:40:53.104Z,987.2
2023-03-05T00:42:54.135Z,987.2
2023-03-05T00:44:55.761Z,987.2
2023-03-05T00:46:57.275Z,987.2
2023-03-05T00:48:58.712Z,987.2
2023-03-05T00:51:00.412Z,987.1
2023-03-05T00:53:01.579Z,987.1
2023-03-05T00:55:03.531Z,987
2023-03-05T00:57:05.433Z,987
2023-03-05T00:59:06.738Z,987
2023-03-05T01:01:08.432Z,986.9
2023-03-05T01:03:10.198Z,987
2023-03-05T01:07:13.101Z,986.8
2023-03-05T01:09:14.409Z,986.9
2023-03-05T01:11:15.929Z,986.8
2023-03-05T01:13:17.372Z,986.8
2023-03-05T01:15:19.388Z,986.9
2023-03-05T01:17:20.958Z,986.9
2023-03-05T01:19:21.837Z,986.8
2023-03-05T01:21:23.071Z,986.7
2023-03-05T01:23:24.928Z,986.8
2023-03-05T01:25:25.992Z,986.7
2023-03-05T01:27:27.428Z,986.6
2023-03-05T01:29:29.346Z,986.7
2023-03-05T01:31:30.654Z,986.5
2023-03-05T01:33:32.100Z,986.6
2023-03-05T01:35:34.078Z,986.6
2023-03-05T01:37:35.221Z,986.5
2023-03-05T01:39:36.255Z,986.6
2023-03-05T01:41:38.187Z,986.5
2023-03-05T01:43:39.968Z,986.5
2023-03-05T01:45:41.905Z,986.5
2023-03-05T01:49:44.319Z,986.5
2023-03-05T01:51:46.126Z,986.4
2023-03-05T01:53:47.678Z,986.5
2023-03-05T01:55:49.233Z,986.4
2023-03-05T01:57:51.064Z,986.4
2023-03-05T01:59:52.316Z,986.5
2023-03-05T02:01:54.214Z,986.4
2023-03-05T02:03:56.180Z,986.4
2023-03-05T02:05:57.437Z,986.3
2023-03-05T02:07:58.548Z,986.4
2023-03-05T02:10:00.273Z,986.3
2023-03-05T02:12:01.324Z,986.3
2023-03-05T02:16:13.235Z,986.2
2023-03-05T02:18:05.691Z,986.3
2023-03-05T02:20:07.566Z,986.2
2023-03-05T02:22:09.460Z,986.2
2023-03-05T02:24:10.716Z,986.2
2023-03-05T02:26:12.048Z,986.2
2023-03-05T02:28:13.708Z,986.2
2023-03-05T02:30:14.874Z,986.1
2023-03-05T02:32:16.399Z,986.1
2023-03-05T02:34:17.348Z,986.1
2023-03-05T02:36:18.975Z,986.1
2023-03-05T02:38:20.575Z,986
2023-03-05T02:40:21.640Z,986.1
2023-03-05T02:42:22.717Z,986
2023-03-05T02:44:23.831Z,986
2023-03-05T02:46:25.450Z,986
2023-03-05T02:48:26.466Z,986.1
2023-03-05T02:50:27.571Z,986
2023-03-05T02:52:28.693Z,986
2023-03-05T02:54:30.277Z,985.9
2023-03-05T02:56:31.984Z,985.9
2023-03-05T02:58:33.282Z,985.8
2023-03-05T03:00:34.665Z,985.9
2023-03-05T03:02:35.811Z,985.9
2023-03-05T03:04:37.257Z,985.9
2023-03-05T03:06:38.631Z,985.8
2023-03-05T03:08:40.048Z,985.7
2023-03-05T03:10:41.194Z,985.8
2023-03-05T03:14:44.183Z,985.9
2023-03-05T03:16:45.890Z,985.9
2023-03-05T03:18:47.579Z,985.9
2023-03-05T03:20:49.423Z,985.8
2023-03-05T03:22:50.511Z,985.8
2023-03-05T03:24:51.703Z,985.8
2023-03-05T03:26:52.852Z,985.8
2023-03-05T03:28:54.058Z,985.8
2023-03-05T03:30:55.144Z,985.7
2023-03-05T03:32:56.814Z,985.7
2023-03-05T03:34:58.328Z,985.9
2023-03-05T03:36:59.720Z,985.8
2023-03-05T03:39:01.233Z,985.7
2023-03-05T03:41:02.771Z,985.6
2023-03-05T03:43:04.119Z,985.6
2023-03-05T03:45:05.913Z,985.6
2023-03-05T03:47:07.602Z,985.6
2023-03-05T03:49:08.696Z,985.5
2023-03-05T03:51:10.002Z,985.5
2023-03-05T03:53:11.282Z,985.5
2023-03-05T03:55:12.976Z,985.4
2023-03-05T03:57:14.158Z,985.6
2023-03-05T03:59:16.028Z,985.5
2023-03-05T04:01:17.276Z,985.5
2023-03-05T04:03:18.884Z,985.5
2023-03-05T04:05:19.964Z,985.5
2023-03-05T04:07:21.872Z,985.5
2023-03-05T04:09:23.426Z,985.4
2023-03-05T04:13:26.828Z,985.4
2023-03-05T04:15:28.670Z,985.4
2023-03-05T04:17:30.265Z,985.3
2023-03-05T04:19:32.142Z,985.2
2023-03-05T04:21:33.779Z,985.4
2023-03-05T04:23:35.495Z,985.4
2023-03-05T04:25:36.739Z,985.2
2023-03-05T04:27:38.678Z,985.3
2023-03-05T04:29:40.425Z,985.4
2023-03-05T04:31:41.949Z,985.4
2023-03-05T04:33:43.758Z,985.2
2023-03-05T04:35:45.382Z,985.3
2023-03-05T04:37:47.202Z,985.3
2023-03-05T04:39:48.970Z,985.2
2023-03-05T04:41:50.041Z,985.1
2023-03-05T04:43:51.196Z,985.3
2023-03-05T04:45:52.425Z,985.1
2023-03-05T04:47:53.998Z,985
2023-03-05T04:49:55.718Z,985.2
2023-03-05T04:51:56.849Z,985.2
2023-03-05T04:53:58.755Z,985.1
2023-03-05T04:56:00.257Z,985.2
2023-03-05T04:58:01.336Z,985.1
2023-03-05T05:00:02.882Z,985
2023-03-05T05:02:04.237Z,985
2023-03-05T05:04:05.508Z,985
2023-03-05T05:06:07.365Z,985
2023-03-05T05:08:09.158Z,985
2023-03-05T05:10:10.734Z,985.1
2023-03-05T05:12:11.951Z,985
2023-03-05T05:14:13.361Z,984.9
2023-03-05T05:16:15.267Z,984.9
2023-03-05T05:18:16.769Z,985
2023-03-05T05:20:18.511Z,984.9
2023-03-05T05:22:19.591Z,984.8
2023-03-05T05:24:20.700Z,984.8
2023-03-05T05:28:23.511Z,984.9
2023-03-05T05:29:07.422Z,984.9
2023-03-05T05:33:10.687Z,985
2023-03-05T05:35:12.303Z,984.9
2023-03-05T05:37:14.147Z,985
2023-03-05T05:39:15.690Z,985
2023-03-05T05:41:17.617Z,985
2023-03-05T05:43:19.589Z,985
2023-03-05T05:45:21.539Z,985
2023-03-05T05:47:23.479Z,985.1
2023-03-05T05:49:24.588Z,985
2023-03-05T05:51:26.165Z,985
2023-03-05T05:53:27.622Z,985
2023-03-05T05:55:29.398Z,985
2023-03-05T05:57:31.346Z,985
2023-03-05T05:59:32.930Z,985
2023-03-05T06:01:34.450Z,985
2023-03-05T06:05:37.402Z,984.9
2023-03-05T06:07:38.803Z,985
2023-03-05T06:09:39.955Z,984.9
2023-03-05T06:11:41.597Z,984.9
2023-03-05T06:13:43.380Z,985
2023-03-05T06:15:45.309Z,984.9
2023-03-05T06:17:47.266Z,984.8
2023-03-05T06:19:49.178Z,984.9
2023-03-05T06:21:50.685Z,984.9
2023-03-05T06:23:51.974Z,984.9
2023-03-05T06:25:53.387Z,984.9
2023-03-05T06:27:55.008Z,984.9
2023-03-05T06:29:56.880Z,984.9
2023-03-05T06:31:58.474Z,984.9
2023-03-05T06:34:08.452Z,984.9
2023-03-05T06:36:01.131Z,985
2023-03-05T06:38:02.710Z,984.9
2023-03-05T06:40:04.244Z,984.8
2023-03-05T06:42:05.328Z,984.9
2023-03-05T06:44:06.403Z,984.8
2023-03-05T06:48:09.413Z,984.9
2023-03-05T06:50:10.910Z,984.9
2023-03-05T06:52:12.815Z,984.8
2023-03-05T06:54:14.056Z,984.9
2023-03-05T06:56:15.861Z,984.9
2023-03-05T06:58:17.852Z,984.9
2023-03-05T07:00:19.125Z,984.9
2023-03-05T07:02:20.648Z,985
2023-03-05T07:04:21.914Z,984.9
2023-03-05T07:06:23.410Z,984.9
2023-03-05T07:08:24.805Z,984.9
2023-03-05T07:10:26.657Z,985
2023-03-05T07:14:29.639Z,985
2023-03-05T07:16:30.729Z,985
2023-03-05T07:18:32.473Z,984.9
2023-03-05T07:20:33.690Z,985
2023-03-05T07:24:36.590Z,985
2023-03-05T07:26:38.583Z,985
2023-03-05T07:28:40.446Z,985
2023-03-05T07:30:42.147Z,984.9
2023-03-05T07:32:43.304Z,985
2023-03-05T07:34:44.420Z,985
2023-03-05T07:36:46.133Z,984.9
2023-03-05T07:38:48.112Z,984.9
2023-03-05T07:40:49.930Z,984.9
2023-03-05T07:42:50.951Z,984.9
2023-03-05T07:44:52.679Z,984.9
2023-03-05T07:46:54.188Z,984.9
2023-03-05T07:48:56.095Z,984.9
2023-03-05T07:50:57.221Z,985
2023-03-05T07:52:59.119Z,985
2023-03-05T07:57:02.542Z,984.9
2023-03-05T07:59:04.564Z,985
2023-03-05T08:01:05.668Z,984.9
2023-03-05T08:03:07.181Z,985
2023-03-05T08:07:10.104Z,985
2023-03-05T08:09:11.690Z,984.9
2023-03-05T08:13:15.397Z,984.9
2023-03-05T08:15:16.985Z,984.9
2023-03-05T08:17:18.997Z,984.9
2023-03-05T08:19:20.472Z,984.8
2023-03-05T08:21:22.191Z,984.8
2023-03-05T08:23:23.960Z,984.9
2023-03-05T08:25:25.507Z,984.7
2023-03-05T08:27:26.999Z,984.8
2023-03-05T08:29:28.371Z,984.7
2023-03-05T08:31:29.405Z,984.7
2023-03-05T08:33:31.640Z,984.7
2023-03-05T08:35:31.882Z,984.7
2023-03-05T08:37:33.773Z,984.7
2023-03-05T08:39:35.103Z,984.6
2023-03-05T08:41:36.177Z,984.6
2023-03-05T08:43:38.192Z,984.6
2023-03-05T08:45:39.324Z,984.7
2023-03-05T08:47:40.903Z,984.7
2023-03-05T08:49:42.667Z,984.8
2023-03-05T08:51:43.662Z,984.6
2023-03-05T08:55:46.538Z,984.6
2023-03-05T08:57:47.807Z,984.7
2023-03-05T08:59:48.903Z,984.6
2023-03-05T09:01:50.004Z,984.5
2023-03-05T09:03:51.609Z,984.6
2023-03-05T09:05:52.718Z,984.5
2023-03-05T09:07:54.043Z,984.5
2023-03-05T09:11:56.263Z,984.5
2023-03-05T09:13:58.010Z,984.5
2023-03-05T09:15:59.820Z,984.4
2023-03-05T09:18:00.785Z,984.3
2023-03-05T09:20:02.265Z,984.4
2023-03-05T09:22:03.997Z,984.3
2023-03-05T09:24:05.083Z,984.4
2023-03-05T09:26:06.627Z,984.3
2023-03-05T09:28:07.950Z,984.3
2023-03-05T09:30:09.024Z,984.4
2023-03-05T09:32:10.687Z,984.2
2023-03-05T09:34:11.652Z,984.2
2023-03-05T09:36:21.280Z,984.3
2023-03-05T09:38:14.945Z,984.1
2023-03-05T09:40:15.936Z,984.2
2023-03-05T09:42:17.017Z,984.1
2023-03-05T09:44:18.176Z,984.1
2023-03-05T09:46:19.437Z,984.1
2023-03-05T09:48:21.061Z,984.1
2023-03-05T09:50:22.676Z,984.1
2023-03-05T09:52:24.362Z,984.1
2023-03-05T09:54:25.402Z,984
2023-03-05T09:56:26.739Z,984
2023-03-05T09:58:28.359Z,984.1
2023-03-05T10:00:29.752Z,984
2023-03-05T10:02:31.671Z,984.1
2023-03-05T10:04:32.664Z,984.1
2023-03-05T10:06:34.074Z,983.9
2023-03-05T10:08:35.229Z,983.9
2023-03-05T10:10:36.925Z,983.9
2023-03-05T10:12:37.999Z,983.9
2023-03-05T10:14:39.711Z,983.9
2023-03-05T10:16:40.812Z,983.8
2023-03-05T10:20:43.861Z,983.8
2023-03-05T10:22:45.248Z,983.8
2023-03-05T10:24:46.440Z,983.8
2023-03-05T10:26:47.846Z,983.8
2023-03-05T10:30:50.033Z,983.8
2023-03-05T10:32:51.109Z,983.8
2023-03-05T10:36:53.333Z,983.8
2023-03-05T10:38:54.646Z,983.7
2023-03-05T10:40:56.375Z,983.8
2023-03-05T10:42:57.431Z,983.8
2023-03-05T10:44:58.437Z,983.8
2023-03-05T10:46:59.854Z,983.7
2023-03-05T10:49:01.550Z,983.7
2023-03-05T10:51:03.195Z,983.6
2023-03-05T10:53:05.006Z,983.7
2023-03-05T10:55:06.499Z,983.6
2023-03-05T10:57:08.205Z,983.5
2023-03-05T10:59:09.811Z,983.6
2023-03-05T11:01:11.227Z,983.4
2023-03-05T11:03:12.496Z,983.6
2023-03-05T11:05:14.372Z,983.5
2023-03-05T11:07:16.034Z,983.5
2023-03-05T11:09:17.212Z,983.5
2023-03-05T11:11:18.574Z,983.5
2023-03-05T11:13:19.735Z,983.4
2023-03-05T11:15:20.965Z,983.4
2023-03-05T11:17:22.610Z,983.3
2023-03-05T11:19:24.437Z,983.4
2023-03-05T11:21:26.221Z,983.3
2023-03-05T11:23:27.892Z,983.3
2023-03-05T11:25:29.019Z,983.4
2023-03-05T11:27:30.358Z,983.3
2023-03-05T11:29:32.078Z,983.3
2023-03-05T11:31:33.597Z,983.3
2023-03-05T11:33:35.446Z,983.3
2023-03-05T11:35:37.349Z,983.3
2023-03-05T11:37:38.932Z,983.3
2023-03-05T11:39:40.007Z,983.3
2023-03-05T11:41:41.790Z,983.3
2023-03-05T11:43:43.073Z,983.1
2023-03-05T11:45:44.733Z,983.2
2023-03-05T11:47:46.196Z,983.1
2023-03-05T11:49:47.203Z,983.1
2023-03-05T11:51:48.932Z,983.1
2023-03-05T11:53:50.131Z,983.1
2023-03-05T11:55:51.308Z,983.1
2023-03-05T11:57:52.961Z,983.1
2023-03-05T11:59:54.326Z,983.1
2023-03-05T12:01:55.372Z,983.1
2023-03-05T12:03:57.058Z,983
2023-03-05T12:05:58.815Z,983
2023-03-05T12:08:00.328Z,982.9
2023-03-05T12:10:02.054Z,982.9
2023-03-05T12:12:03.687Z,982.8
2023-03-05T12:14:05.162Z,982.8
2023-03-05T12:16:50.888Z,982.8
2023-03-05T12:18:52.475Z,982.8
2023-03-05T12:20:53.635Z,982.7
2023-03-05T12:22:55.384Z,982.8
2023-03-05T12:24:57.043Z,982.8
2023-03-05T12:26:58.783Z,982.7
2023-03-05T12:29:00.398Z,982.7
2023-03-05T12:31:01.670Z,982.6
2023-03-05T12:33:03.421Z,982.5
2023-03-05T12:35:04.791Z,982.5
2023-03-05T12:39:07.941Z,982.5
2023-03-05T12:41:09.571Z,982.5
2023-03-05T12:43:10.867Z,982.4
2023-03-05T12:45:12.284Z,982.4
2023-03-05T12:49:14.658Z,982.3
2023-03-05T12:51:16.361Z,982.4
2023-03-05T12:53:17.414Z,982.4
2023-03-05T12:55:18.513Z,982.3
2023-03-05T12:57:19.814Z,982.2
2023-03-05T12:59:21.162Z,982.2
2023-03-05T13:01:22.952Z,982.2
2023-03-05T13:03:24.713Z,982.2
2023-03-05T13:05:26.456Z,982.2
2023-03-05T13:07:28.117Z,982.2
2023-03-05T13:09:30.031Z,982.1
2023-03-05T13:11:31.448Z,982.1
2023-03-05T13:13:32.900Z,982.2
2023-03-05T13:15:34.233Z,982.1
2023-03-05T13:17:35.366Z,982.1
2023-03-05T13:21:38.802Z,982
2023-03-05T13:23:39.863Z,982
2023-03-05T13:25:40.890Z,982
2023-03-05T13:27:42.481Z,981.9
2023-03-05T13:31:45.399Z,981.9
2023-03-05T13:33:47.102Z,981.9
2023-03-05T13:35:48.245Z,981.9
2023-03-05T13:37:49.973Z,981.9
2023-03-05T13:39:51.781Z,981.8
2023-03-05T13:41:52.956Z,981.9
2023-03-05T13:43:54.583Z,981.8
2023-03-05T13:45:56.029Z,981.7
2023-03-05T13:47:57.074Z,981.8
2023-03-05T13:49:58.764Z,981.9
2023-03-05T13:51:59.859Z,981.8
2023-03-05T13:54:01.614Z,981.9
2023-03-05T13:56:02.657Z,981.8
2023-03-05T13:58:04.109Z,981.8
2023-03-05T14:00:07.214Z,981.8
2023-03-05T14:02:07.369Z,981.8
2023-03-05T14:04:08.756Z,981.7
2023-03-05T14:06:10.327Z,981.6
2023-03-05T14:08:11.667Z,981.7
2023-03-05T14:10:12.604Z,981.6
2023-03-05T14:12:14.459Z,981.7
2023-03-05T14:14:15.539Z,981.6
2023-03-05T14:16:16.850Z,981.6
2023-03-05T14:20:19.070Z,981.5
2023-03-05T14:22:19.596Z,981.5
2023-03-05T14:24:21.533Z,981.5
2023-03-05T14:26:23.400Z,981.5
2023-03-05T14:28:24.620Z,981.4
2023-03-05T14:30:26.163Z,981.4
2023-03-05T14:32:27.796Z,981.4
2023-03-05T14:36:30.741Z,981.3
2023-03-05T14:38:32.492Z,981.4
2023-03-05T14:40:33.748Z,981.4
2023-03-05T14:42:36.971Z,981.2
2023-03-05T14:44:36.721Z,981.3
2023-03-05T14:46:37.980Z,981.2
2023-03-05T14:48:39.341Z,981.2
2023-03-05T14:50:40.593Z,981.2
2023-03-05T14:52:42.557Z,981.2
2023-03-05T14:54:43.661Z,981.1
2023-03-05T14:56:45.453Z,981
2023-03-05T14:58:46.634Z,981.1
2023-03-05T15:00:50.088Z,981.1
2023-03-05T15:02:49.907Z,981
2023-03-05T15:04:51.873Z,981
2023-03-05T15:06:53.736Z,981
2023-03-05T15:08:54.752Z,980.9
2023-03-05T15:10:56.160Z,980.9
2023-03-05T15:12:58.090Z,980.9
2023-03-05T15:14:59.968Z,980.8
2023-03-05T15:19:02.724Z,980.9
2023-03-05T15:21:04.253Z,980.8
2023-03-05T15:23:06.213Z,980.7
2023-03-05T15:25:07.280Z,980.6
2023-03-05T15:27:08.329Z,980.6
2023-03-05T15:29:10.178Z,980.6
2023-03-05T15:31:11.751Z,980.6
2023-03-05T15:33:12.908Z,980.6
2023-03-05T15:35:14.167Z,980.5
2023-03-05T15:37:15.509Z,980.5
2023-03-05T15:39:16.911Z,980.4
2023-03-05T15:41:18.764Z,980.5
2023-03-05T15:45:21.360Z,980.5
2023-03-05T15:47:22.736Z,980.5
2023-03-05T15:49:23.955Z,980.4
2023-03-05T15:51:25.757Z,980.4
2023-03-05T15:55:29.359Z,980.3
2023-03-05T15:57:30.514Z,980.4
2023-03-05T15:59:32.432Z,980.3
2023-03-05T16:01:33.482Z,980.3
2023-03-05T16:03:34.521Z,980.3
2023-03-05T16:05:35.934Z,980.2
2023-03-05T16:07:37.316Z,980.2
2023-03-05T16:09:39.068Z,980.3
2023-03-05T16:11:40.146Z,980.3
2023-03-05T16:13:41.311Z,980.3
2023-03-05T16:15:43.281Z,980.2
2023-03-05T16:17:45.228Z,980.3
2023-03-05T16:19:46.172Z,980.2
2023-03-05T16:21:47.285Z,980.2
2023-03-05T16:23:48.598Z,980.1
2023-03-05T16:25:49.932Z,980.2
2023-03-05T16:27:51.626Z,980.1
2023-03-05T16:29:52.662Z,980.1
2023-03-05T16:31:55.643Z,980.1
2023-03-05T16:33:56.308Z,980.1
2023-03-05T16:35:58.419Z,980.1
2023-03-05T16:37:59.309Z,980
2023-03-05T16:40:00.429Z,980
2023-03-05T16:44:02.631Z,980
2023-03-05T16:46:03.998Z,979.9
2023-03-05T16:48:05.861Z,980
2023-03-05T16:50:07.552Z,979.9
2023-03-05T16:52:18.153Z,979.9
2023-03-05T16:54:10.330Z,979.9
2023-03-05T16:56:12.165Z,979.9
2023-03-05T16:58:13.815Z,979.8
2023-03-05T17:00:15.370Z,979.8
2023-03-05T17:02:17.254Z,979.8
2023-03-05T17:04:19.026Z,979.9
2023-03-05T17:06:20.617Z,979.8
2023-03-05T17:08:22.080Z,979.9
2023-03-05T17:10:23.318Z,979.9
2023-03-05T17:12:25.252Z,979.8
2023-03-05T17:14:26.742Z,979.8
2023-03-05T17:16:28.613Z,979.9
2023-03-05T17:18:29.671Z,979.8
2023-03-05T17:20:31.231Z,979.9
2023-03-05T17:22:32.673Z,979.8
2023-03-05T17:24:34.396Z,979.8
2023-03-05T17:26:36.036Z,979.8
2023-03-05T17:28:37.194Z,979.9
2023-03-05T17:30:38.876Z,979.9
2023-03-05T17:32:40.842Z,979.9
2023-03-05T17:34:41.959Z,979.8
2023-03-05T17:36:43.183Z,979.9
2023-03-05T17:38:44.751Z,979.8
2023-03-05T17:40:46.043Z,979.9
2023-03-05T17:42:47.449Z,979.9
2023-03-05T17:46:50.710Z,979.8
2023-03-05T17:48:52.426Z,979.8
2023-03-05T17:50:53.450Z,979.9
2023-03-05T17:52:54.730Z,979.9
2023-03-05T17:54:57.332Z,979.9
2023-03-05T17:56:58.759Z,979.9
2023-03-05T17:58:59.557Z,979.8
2023-03-05T18:01:01.546Z,979.8
2023-03-05T18:03:02.933Z,979.9
2023-03-05T18:05:04.582Z,979.9
2023-03-05T18:07:05.806Z,979.9
2023-03-05T18:09:07.036Z,979.9
2023-03-05T18:11:08.504Z,979.9
2023-03-05T18:13:10.140Z,979.9
2023-03-05T18:15:11.314Z,979.9
2023-03-05T18:17:12.639Z,979.9
2023-03-05T18:19:14.699Z,979.9
2023-03-05T18:21:16.344Z,979.9
2023-03-05T18:25:19.335Z,980
2023-03-05T18:27:21.024Z,979.9
2023-03-05T18:29:22.641Z,979.8
2023-03-05T18:31:23.638Z,979.8
2023-03-05T18:33:24.649Z,979.8
2023-03-05T18:35:26.006Z,979.8
2023-03-05T18:37:27.021Z,979.7
2023-03-05T18:39:28.231Z,979.8
2023-03-05T18:41:29.411Z,979.8
2023-03-05T18:43:30.816Z,979.7
2023-03-05T18:45:32.841Z,979.7
2023-03-05T18:47:33.961Z,979.6
2023-03-05T18:51:37.653Z,979.7
2023-03-05T18:53:39.368Z,979.6
2023-03-05T18:55:40.536Z,979.7
2023-03-05T18:57:41.968Z,979.6
2023-03-05T18:59:43.719Z,979.6
2023-03-05T19:02:29.486Z,979.6
2023-03-05T19:04:31.343Z,979.5
2023-03-05T19:06:32.498Z,979.6
2023-03-05T19:08:33.825Z,979.6
2023-03-05T19:10:34.904Z,979.6
2023-03-05T19:12:35.942Z,979.6
2023-03-05T19:14:37.272Z,979.6
2023-03-05T19:16:38.896Z,979.6
2023-03-05T19:18:40.425Z,979.6
2023-03-05T19:20:42.264Z,979.6
2023-03-05T19:22:43.952Z,979.5
2023-03-05T19:24:45.839Z,979.4
2023-03-05T19:26:47.167Z,979.4
2023-03-05T19:28:49.055Z,979.5
2023-03-05T19:30:50.471Z,979.5
2023-03-05T19:32:51.833Z,979.4
2023-03-05T19:34:53.302Z,979.4
2023-03-05T19:36:55.141Z,979.4
2023-03-05T19:38:57.184Z,979.4
2023-03-05T19:40:58.153Z,979.3
2023-03-05T19:45:01.382Z,979.3
2023-03-05T19:47:03.071Z,979.3
2023-03-05T19:49:04.110Z,979.4
2023-03-05T19:51:05.010Z,979.4
2023-03-05T19:53:06.847Z,979.2
2023-03-05T19:55:08.410Z,979.3
2023-03-05T19:57:09.531Z,979.2
2023-03-05T19:59:11.065Z,979.3
2023-03-05T20:01:12.298Z,979.2
2023-03-05T20:03:14.043Z,979.3
2023-03-05T20:05:15.776Z,979.3
2023-03-05T20:07:17.547Z,979.2
2023-03-05T20:09:18.771Z,979.2
2023-03-05T20:11:19.909Z,979.3
2023-03-05T20:13:21.115Z,979.3
2023-03-05T20:15:22.179Z,979.2
2023-03-05T20:17:23.445Z,979.2
2023-03-05T20:19:25.389Z,979.2
2023-03-05T20:21:26.890Z,979.2
2023-03-05T20:23:28.091Z,979.2
2023-03-05T20:25:29.668Z,979.3
2023-03-05T20:27:30.929Z,979.2
2023-03-05T20:29:32.013Z,979
2023-03-05T20:31:33.640Z,979.1
2023-03-05T20:33:35.020Z,979.1
2023-03-05T20:35:36.717Z,979.1
2023-03-05T20:37:38.197Z,979
2023-03-05T20:39:39.398Z,979.2
2023-03-05T20:41:41.417Z,979.1
2023-03-05T20:43:42.673Z,979
2023-03-05T20:45:43.875Z,979.1
2023-03-05T20:47:45.173Z,979
2023-03-05T20:49:46.381Z,978.9
2023-03-05T20:51:48.033Z,979
2023-03-05T20:53:49.894Z,978.9
2023-03-05T20:55:51.705Z,978.9
2023-03-05T20:57:53.263Z,978.9
2023-03-05T20:59:54.446Z,978.8
2023-03-05T21:01:55.487Z,978.8
2023-03-05T21:03:57.326Z,978.8
2023-03-05T21:05:58.862Z,978.8
2023-03-05T21:08:00.130Z,978.8
2023-03-05T21:10:01.504Z,978.8
2023-03-05T21:12:02.729Z,978.8
2023-03-05T21:14:04.350Z,978.8
2023-03-05T21:16:05.740Z,978.9
2023-03-05T21:18:06.986Z,978.8
2023-03-05T21:20:08.320Z,978.7
2023-03-05T21:22:09.495Z,978.6
2023-03-05T21:24:10.779Z,978.7
2023-03-05T21:26:13.303Z,978.7
2023-03-05T21:28:12.888Z,978.7
2023-03-05T21:30:14.661Z,978.6
2023-03-05T21:32:16.270Z,978.6
2023-03-05T21:34:17.394Z,978.6
2023-03-05T21:36:18.980Z,978.6
2023-03-05T21:38:20.351Z,978.6
2023-03-05T21:40:21.419Z,978.3
2023-03-05T21:42:22.890Z,978.4
2023-03-05T21:44:24.425Z,978.4
2023-03-05T21:46:25.995Z,978.4
2023-03-05T21:48:27.939Z,978.4
2023-03-05T21:52:30.845Z,978.4
2023-03-05T21:54:32.762Z,978.3
2023-03-05T21:56:33.872Z,978.3
2023-03-05T21:58:35.138Z,978.3
2023-03-05T22:00:36.199Z,978.3
2023-03-05T22:02:38.099Z,978.2
2023-03-05T22:04:39.082Z,978.2
2023-03-05T22:08:42.237Z,978.2
2023-03-05T22:10:43.685Z,978.1
2023-03-05T22:12:45.301Z,978.1
2023-03-05T22:14:46.807Z,978.1
2023-03-05T22:16:48.329Z,978.1
2023-03-05T22:18:50.278Z,978
2023-03-05T22:20:52.030Z,978
2023-03-05T22:22:53.390Z,978
2023-03-05T22:24:54.630Z,978
2023-03-05T22:26:56.546Z,977.9
2023-03-05T22:28:57.634Z,977.9
2023-03-05T22:30:59.685Z,978
2023-03-05T22:33:00.863Z,977.9
2023-03-05T22:35:02.231Z,977.9
2023-03-05T22:37:03.302Z,977.9
2023-03-05T22:39:04.337Z,977.8
2023-03-05T22:41:05.565Z,977.9
2023-03-05T22:43:07.710Z,977.9
2023-03-05T22:45:09.046Z,977.8
2023-03-05T22:47:10.900Z,977.8
2023-03-05T22:49:12.219Z,977.8
2023-03-05T22:51:14.183Z,977.8
2023-03-05T22:53:15.557Z,977.7
2023-03-05T22:55:16.861Z,977.6
2023-03-05T22:57:18.407Z,977.6
2023-03-05T22:59:20.307Z,977.6
2023-03-05T23:01:21.485Z,977.4
2023-03-05T23:03:22.620Z,977.4
2023-03-05T23:05:24.570Z,977.4
2023-03-05T23:07:25.768Z,977.5
2023-03-05T23:09:27.490Z,977.5
2023-03-05T23:11:29.343Z,977.4
2023-03-05T23:13:30.818Z,977.4
2023-03-05T23:15:32.133Z,977.2
2023-03-05T23:17:33.415Z,977.3
2023-03-05T23:19:35.059Z,977.2
2023-03-05T23:23:38.000Z,977.2
2023-03-05T23:25:39.826Z,977.2
2023-03-05T23:27:41.464Z,977.1
2023-03-05T23:29:42.626Z,977.2
2023-03-05T23:33:45.354Z,977.2
2023-03-05T23:35:47.210Z,977.1
2023-03-05T23:37:49.118Z,977.2
2023-03-05T23:39:50.392Z,977.2
2023-03-05T23:41:51.908Z,977.1
2023-03-05T23:43:53.327Z,977.2
2023-03-05T23:45:55.323Z,977.1
2023-03-05T23:47:56.319Z,977.1
2023-03-05T23:49:57.758Z,977
2023-03-05T23:51:59.225Z,976.9
2023-03-05T23:54:01.044Z,976.9
2023-03-05T23:56:02.997Z,976.9
2023-03-05T23:58:04.046Z,976.9
